Time;durP1;ratioP1;P1;durP2;ratioP2;P2;SDS_P1;SDS_P2;PMS_P1;PMS_P2;Temp;Humidity;BMP_temperature;BMP_pressure;BME280_temperature;BME280_humidity;BME280_pressure;Samples;Min_cycle;Max_cycle;Signal;HPM_P1;HPM_P2
2020/12/04 00:00:38;;;;;;;15.97;10.30;;;3.20;99.90;;;;;;5047576;28;20573;-54
2020/12/04 00:03:06;;;;;;;16.17;10.93;;;3.20;99.90;;;;;;5047716;28;20511;-54
2020/12/04 00:05:34;;;;;;;18.57;10.90;;;3.20;99.90;;;;;;5047904;28;20492;-54
2020/12/04 00:08:01;;;;;;;18.47;11.63;;;3.20;99.90;;;;;;5050647;28;20511;-54
2020/12/04 00:10:29;;;;;;;15.80;10.63;;;3.20;99.90;;;;;;5050861;28;20905;-54
2020/12/04 00:12:56;;;;;;;16.70;10.23;;;3.20;99.90;;;;;;5050987;28;20513;-54
2020/12/04 00:15:23;;;;;;;14.97;9.97;;;3.10;99.90;;;;;;5051488;28;20547;-54
2020/12/04 00:17:50;;;;;;;23.37;13.50;;;3.10;99.90;;;;;;5049727;28;20816;-55
2020/12/04 00:20:18;;;;;;;34.77;16.53;;;3.10;99.90;;;;;;5047025;28;20532;-54
2020/12/04 00:22:46;;;;;;;38.63;19.13;;;3.10;99.90;;;;;;5045786;28;20739;-54
2020/12/04 00:25:13;;;;;;;27.53;15.67;;;3.10;99.90;;;;;;5066155;28;20553;-54
2020/12/04 00:27:41;;;;;;;26.97;16.00;;;3.00;99.90;;;;;;5060192;28;20479;-54
2020/12/04 00:30:08;;;;;;;21.60;13.50;;;3.00;99.90;;;;;;5030616;28;20504;-54
2020/12/04 00:32:35;;;;;;;19.60;12.27;;;3.10;99.90;;;;;;5038772;28;20471;-55
2020/12/04 00:35:03;;;;;;;20.37;12.30;;;3.00;99.90;;;;;;5031426;28;20507;-54
2020/12/04 00:37:31;;;;;;;16.73;10.33;;;3.00;99.90;;;;;;5030919;28;20572;-54
2020/12/04 00:39:58;;;;;;;19.33;12.73;;;3.00;99.90;;;;;;5030568;28;20556;-54
2020/12/04 00:42:25;;;;;;;17.20;11.97;;;3.00;99.90;;;;;;5030914;28;20611;-54
2020/12/04 00:44:53;;;;;;;18.23;12.03;;;3.00;99.90;;;;;;5030660;28;20563;-55
2020/12/04 00:47:20;;;;;;;20.17;11.30;;;3.00;99.90;;;;;;5030770;28;20979;-54
2020/12/04 00:49:47;;;;;;;14.30;9.37;;;2.90;99.90;;;;;;5045823;28;20499;-55
2020/12/04 00:52:15;;;;;;;17.57;10.33;;;2.90;99.90;;;;;;5029339;28;20991;-54
2020/12/04 00:54:43;;;;;;;14.90;9.97;;;2.90;99.90;;;;;;5031060;28;21045;-54
2020/12/04 00:57:12;;;;;;;16.10;11.27;;;2.90;99.90;;;;;;5045762;28;20482;-54
2020/12/04 00:59:46;;;;;;;14.37;10.07;;;2.90;99.90;;;;;;5035504;28;20966;-55
2020/12/04 01:02:13;;;;;;;15.50;10.17;;;2.90;99.90;;;;;;5027472;28;20548;-54
2020/12/04 01:04:41;;;;;;;14.83;9.73;;;2.90;99.90;;;;;;5030757;28;20832;-54
2020/12/04 01:07:09;;;;;;;14.53;9.27;;;2.90;99.90;;;;;;5031366;28;20460;-54
2020/12/04 01:09:37;;;;;;;14.80;9.60;;;2.90;99.90;;;;;;5048676;28;21027;-55
2020/12/04 01:12:05;;;;;;;15.50;10.33;;;2.80;99.90;;;;;;5050463;28;20562;-55
2020/12/04 01:14:32;;;;;;;13.80;9.37;;;2.80;99.90;;;;;;5050623;28;20900;-54
2020/12/04 01:17:00;;;;;;;13.97;9.73;;;2.80;99.90;;;;;;5045133;28;20565;-55
2020/12/04 01:19:27;;;;;;;13.47;9.53;;;2.70;99.90;;;;;;5049583;28;20572;-54
2020/12/04 01:21:54;;;;;;;13.70;9.43;;;2.80;99.90;;;;;;5050339;28;21008;-54
2020/12/04 01:24:22;;;;;;;16.03;10.30;;;2.70;99.90;;;;;;5050344;28;20974;-54
2020/12/04 01:26:49;;;;;;;16.33;9.83;;;2.70;99.90;;;;;;5049414;28;21016;-55
2020/12/04 01:29:17;;;;;;;14.93;10.53;;;2.70;99.90;;;;;;5021933;28;20552;-55
2020/12/04 01:31:47;;;;;;;15.50;10.77;;;2.60;99.90;;;;;;5023448;28;21092;-55
2020/12/04 01:34:14;;;;;;;14.57;9.83;;;2.60;99.90;;;;;;5030284;28;20555;-54
2020/12/04 01:36:42;;;;;;;16.73;10.30;;;2.60;99.90;;;;;;5044986;28;20502;-55
2020/12/04 01:39:09;;;;;;;17.07;10.97;;;2.60;99.90;;;;;;5049772;28;20534;-54
2020/12/04 01:41:37;;;;;;;14.77;10.23;;;2.60;99.90;;;;;;5049418;28;20474;-56
2020/12/04 01:44:05;;;;;;;15.43;10.20;;;2.60;99.90;;;;;;5049974;28;20474;-54
2020/12/04 01:46:33;;;;;;;15.67;10.43;;;2.60;99.90;;;;;;5049432;28;20558;-55
2020/12/04 01:49:01;;;;;;;17.37;11.27;;;2.60;99.90;;;;;;5049688;28;20483;-54
2020/12/04 01:51:30;;;;;;;14.83;10.23;;;2.60;99.90;;;;;;5049420;28;20544;-55
2020/12/04 01:53:57;;;;;;;16.63;11.17;;;2.50;99.90;;;;;;5049918;28;20909;-56
2020/12/04 01:56:25;;;;;;;15.40;10.37;;;2.50;99.90;;;;;;5049026;28;21001;-56
2020/12/04 01:58:52;;;;;;;16.83;11.23;;;2.50;99.90;;;;;;5049776;28;20482;-56
2020/12/04 02:01:20;;;;;;;17.53;11.03;;;2.50;99.90;;;;;;5049136;28;20563;-54
2020/12/04 02:03:49;;;;;;;17.70;11.40;;;2.40;99.90;;;;;;5049571;28;20819;-55
2020/12/04 02:06:23;;;;;;;16.57;11.17;;;2.40;99.90;;;;;;5049237;28;20934;-54
2020/12/04 02:09:02;;;;;;;16.37;11.30;;;2.40;99.90;;;;;;5029168;28;20494;-54
2020/12/04 02:11:31;;;;;;;17.20;11.77;;;2.30;99.90;;;;;;5034942;28;20488;-54
2020/12/04 02:13:59;;;;;;;17.33;11.57;;;2.30;99.90;;;;;;5051257;28;20518;-54
2020/12/04 02:16:27;;;;;;;17.53;11.53;;;2.30;99.90;;;;;;5044595;28;20484;-55
2020/12/04 02:18:56;;;;;;;18.63;11.87;;;2.40;99.90;;;;;;5046753;28;20550;-54
2020/12/04 02:21:24;;;;;;;19.53;12.70;;;2.30;99.90;;;;;;5031093;28;20483;-54
2020/12/04 02:23:52;;;;;;;17.00;10.80;;;2.30;99.90;;;;;;5028111;28;20931;-54
2020/12/04 02:26:21;;;;;;;18.17;12.20;;;2.30;99.90;;;;;;5028983;28;20557;-54
2020/12/04 02:28:49;;;;;;;19.37;13.03;;;2.30;99.90;;;;;;5033007;28;20511;-54
2020/12/04 02:31:17;;;;;;;18.50;12.40;;;2.30;99.90;;;;;;5048051;28;20827;-54
2020/12/04 02:33:44;;;;;;;19.50;12.23;;;2.30;99.90;;;;;;5048810;28;20525;-54
2020/12/04 02:36:12;;;;;;;18.57;12.27;;;2.20;99.90;;;;;;5048709;28;21061;-55
2020/12/04 02:38:41;;;;;;;18.80;12.63;;;2.30;99.90;;;;;;5046457;28;20483;-55
2020/12/04 02:41:09;;;;;;;19.57;12.67;;;2.20;99.90;;;;;;5048444;28;20470;-55
2020/12/04 02:43:37;;;;;;;19.63;13.00;;;2.20;99.90;;;;;;5048534;28;20586;-55
2020/12/04 02:46:08;;;;;;;21.00;13.67;;;2.10;99.90;;;;;;5047892;28;20908;-57
2020/12/04 02:48:36;;;;;;;20.07;13.03;;;2.20;99.90;;;;;;5048013;28;20537;-56
2020/12/04 02:51:06;;;;;;;20.93;13.90;;;2.20;99.90;;;;;;5048327;28;20478;-56
2020/12/04 02:53:34;;;;;;;20.40;13.10;;;2.20;99.90;;;;;;5048563;28;20556;-54
2020/12/04 02:56:02;;;;;;;21.37;14.03;;;2.20;99.90;;;;;;5047312;28;20544;-56
2020/12/04 02:58:31;;;;;;;21.80;14.13;;;2.20;99.90;;;;;;5046534;28;20484;-56
2020/12/04 03:00:58;;;;;;;22.70;14.67;;;2.10;99.90;;;;;;5046579;28;20570;-54
2020/12/04 03:03:25;;;;;;;22.37;13.57;;;2.10;99.90;;;;;;5047570;28;20471;-55
2020/12/04 03:05:53;;;;;;;21.37;13.97;;;2.10;99.90;;;;;;5046891;28;20503;-54
2020/12/04 03:08:24;;;;;;;22.30;15.07;;;2.00;99.90;;;;;;5046893;28;21657;-54
2020/12/04 03:10:53;;;;;;;25.47;15.97;;;2.00;99.90;;;;;;5045905;28;20490;-55
2020/12/04 03:13:22;;;;;;;22.43;14.20;;;1.90;99.90;;;;;;5042844;28;20564;-55
2020/12/04 03:15:49;;;;;;;22.40;14.50;;;2.00;99.90;;;;;;5034036;28;20551;-54
2020/12/04 03:18:16;;;;;;;22.87;14.97;;;1.90;99.90;;;;;;5029981;28;20526;-56
2020/12/04 03:20:43;;;;;;;21.93;15.10;;;2.00;99.90;;;;;;5026930;28;20533;-55
2020/12/04 03:23:11;;;;;;;23.47;14.50;;;1.90;99.90;;;;;;5026645;28;20571;-55
2020/12/04 03:25:38;;;;;;;24.27;15.07;;;1.90;99.90;;;;;;5026989;28;20852;-54
2020/12/04 03:28:05;;;;;;;23.30;14.93;;;1.90;99.90;;;;;;5026999;28;20556;-56
2020/12/04 03:30:33;;;;;;;23.57;15.83;;;1.90;99.90;;;;;;5029979;28;20859;-55
2020/12/04 03:33:00;;;;;;;20.87;13.47;;;1.80;99.90;;;;;;5079736;28;20563;-57
2020/12/04 03:35:28;;;;;;;23.23;15.90;;;1.90;99.90;;;;;;5050748;28;20494;-56
2020/12/04 03:37:55;;;;;;;23.07;15.30;;;1.90;99.90;;;;;;5050770;28;20858;-55
2020/12/04 03:40:22;;;;;;;23.50;15.17;;;1.90;99.90;;;;;;5050859;28;20483;-55
2020/12/04 03:42:50;;;;;;;27.10;16.20;;;1.90;99.90;;;;;;5050522;28;20502;-54
2020/12/04 03:45:17;;;;;;;24.13;15.90;;;1.90;99.90;;;;;;5052164;28;20474;-57
2020/12/04 03:47:45;;;;;;;25.87;16.37;;;1.90;99.90;;;;;;5052218;28;20465;-55
2020/12/04 03:50:12;;;;;;;23.50;13.90;;;1.80;99.90;;;;;;5051509;28;20581;-54
2020/12/04 03:52:40;;;;;;;24.43;14.57;;;1.80;99.90;;;;;;5051388;28;20977;-55
2020/12/04 03:55:07;;;;;;;27.57;15.77;;;1.80;99.90;;;;;;5052336;28;20478;-54
2020/12/04 03:57:35;;;;;;;26.13;16.60;;;1.70;99.90;;;;;;5051609;28;20483;-55
2020/12/04 04:00:03;;;;;;;25.63;16.13;;;1.70;99.90;;;;;;5051881;28;20490;-55
2020/12/04 04:02:38;;;;;;;24.77;16.57;;;1.70;99.90;;;;;;5050471;28;20532;-55
2020/12/04 04:05:06;;;;;;;24.57;14.53;;;1.60;99.90;;;;;;5051961;28;20559;-55
2020/12/04 04:07:33;;;;;;;27.80;16.30;;;1.70;99.90;;;;;;5050947;28;20974;-54
2020/12/04 04:10:01;;;;;;;26.07;16.00;;;1.60;99.90;;;;;;5051472;28;20522;-54
2020/12/04 04:12:28;;;;;;;28.17;16.67;;;1.70;99.90;;;;;;5036486;28;20478;-54
2020/12/04 04:14:55;;;;;;;26.67;16.27;;;1.70;99.90;;;;;;5032833;28;20998;-56
2020/12/04 04:17:23;;;;;;;29.07;17.00;;;1.70;99.90;;;;;;5031316;28;20486;-56
2020/12/04 04:19:50;;;;;;;28.60;16.43;;;1.70;99.90;;;;;;5031020;28;20518;-55
2020/12/04 04:22:18;;;;;;;27.87;16.73;;;1.70;99.90;;;;;;5031384;28;20511;-56
2020/12/04 04:24:45;;;;;;;26.17;16.17;;;1.60;99.90;;;;;;5031920;28;20557;-54
2020/12/04 04:27:13;;;;;;;25.57;15.50;;;1.60;99.90;;;;;;5031218;28;20550;-54
2020/12/04 04:29:40;;;;;;;29.00;15.50;;;1.50;99.90;;;;;;5030600;28;20495;-54
2020/12/04 04:32:07;;;;;;;31.23;17.63;;;1.50;99.90;;;;;;5047617;28;20550;-55
2020/12/04 04:34:34;;;;;;;31.67;18.27;;;1.50;99.90;;;;;;5051230;28;20510;-54
2020/12/04 04:37:02;;;;;;;27.97;17.40;;;1.50;99.90;;;;;;5051148;28;20503;-54
2020/12/04 04:39:30;;;;;;;30.83;18.00;;;1.60;99.90;;;;;;5050396;28;20508;-55
2020/12/04 04:41:58;;;;;;;28.37;18.60;;;1.50;99.90;;;;;;5051040;28;20490;-56
2020/12/04 04:44:25;;;;;;;28.20;15.07;;;1.50;99.90;;;;;;5050806;28;20485;-55
2020/12/04 04:47:04;;;;;;;30.40;17.43;;;1.50;99.90;;;;;;5050865;28;20479;-55
2020/12/04 04:49:37;;;;;;;27.87;16.73;;;1.60;99.90;;;;;;5049959;28;20594;-55
2020/12/04 04:52:07;;;;;;;27.00;15.67;;;1.60;99.90;;;;;;5050966;28;20561;-55
2020/12/04 04:54:37;;;;;;;28.13;17.43;;;1.60;99.90;;;;;;5050760;28;20887;-55
2020/12/04 04:57:04;;;;;;;27.90;16.80;;;1.50;99.90;;;;;;5050926;28;20563;-54
2020/12/04 04:59:32;;;;;;;27.27;16.47;;;1.60;99.90;;;;;;5050321;28;20513;-54
2020/12/04 05:01:59;;;;;;;27.90;17.77;;;1.50;99.90;;;;;;5050016;28;20993;-55
2020/12/04 05:04:26;;;;;;;26.33;15.77;;;1.50;99.90;;;;;;5050707;28;20480;-54
2020/12/04 05:06:54;;;;;;;26.00;13.97;;;1.60;99.90;;;;;;5049664;28;20490;-55
2020/12/04 05:09:25;;;;;;;24.80;15.60;;;1.50;99.90;;;;;;5036040;28;20488;-54
2020/12/04 05:11:59;;;;;;;27.50;17.97;;;1.50;99.90;;;;;;5050372;28;20581;-55
2020/12/04 05:14:27;;;;;;;28.63;17.37;;;1.50;99.90;;;;;;5049143;28;20471;-56
2020/12/04 05:16:57;;;;;;;31.37;17.53;;;1.50;99.90;;;;;;5048490;28;20474;-55
2020/12/04 05:19:34;;;;;;;28.93;16.93;;;1.50;99.90;;;;;;5049673;28;20811;-55
2020/12/04 05:22:13;;;;;;;34.03;16.83;;;1.50;99.90;;;;;;5037292;28;20563;-56
2020/12/04 05:24:41;;;;;;;28.63;17.33;;;1.40;99.90;;;;;;5027556;28;20471;-55
2020/12/04 05:27:26;;;;;;;25.70;17.20;;;1.50;99.90;;;;;;5029440;28;20610;-56
2020/12/04 05:29:55;;;;;;;27.60;17.33;;;1.50;99.90;;;;;;5028954;28;20492;-55
2020/12/04 05:32:23;;;;;;;28.63;17.43;;;1.50;99.90;;;;;;5046026;28;20477;-54
2020/12/04 05:34:52;;;;;;;27.47;16.93;;;1.50;99.90;;;;;;5050045;28;20984;-54
2020/12/04 05:37:20;;;;;;;26.67;17.40;;;1.50;99.90;;;;;;5048863;28;20561;-55
2020/12/04 05:39:49;;;;;;;25.73;16.63;;;1.60;99.90;;;;;;5049179;28;20547;-54
2020/12/04 05:42:32;;;;;;;28.50;17.97;;;1.60;99.90;;;;;;5049295;28;20569;-55
2020/12/04 05:45:01;;;;;;;27.80;15.90;;;1.60;99.90;;;;;;5049621;28;20506;-55
2020/12/04 05:47:40;;;;;;;27.77;16.27;;;1.60;99.90;;;;;;5049062;28;20483;-55
2020/12/04 05:50:10;;;;;;;26.77;16.93;;;1.60;99.90;;;;;;5049447;28;20475;-55
2020/12/04 05:52:39;;;;;;;29.90;17.73;;;1.60;99.90;;;;;;5049695;28;20490;-55
2020/12/04 05:55:08;;;;;;;27.10;17.17;;;1.60;99.90;;;;;;5048804;28;20459;-55
2020/12/04 05:57:46;;;;;;;27.43;17.43;;;1.60;99.90;;;;;;5047602;28;20554;-54
2020/12/04 06:00:15;;;;;;;26.27;16.93;;;1.60;99.90;;;;;;5048569;28;20470;-54
2020/12/04 06:02:43;;;;;;;29.27;18.17;;;1.50;99.90;;;;;;5045659;28;20498;-56
2020/12/04 06:05:11;;;;;;;28.23;17.60;;;1.50;99.90;;;;;;5047509;28;20556;-55
2020/12/04 06:07:40;;;;;;;27.77;18.40;;;1.60;99.90;;;;;;5037018;28;20475;-54
2020/12/04 06:10:08;;;;;;;25.67;16.13;;;1.60;99.90;;;;;;5029289;28;20510;-55
2020/12/04 06:12:37;;;;;;;27.87;16.97;;;1.50;99.90;;;;;;5028221;28;20479;-54
2020/12/04 06:15:26;;;;;;;29.23;18.97;;;1.60;99.90;;;;;;5025929;28;20486;-55
2020/12/04 06:18:03;;;;;;;28.37;17.53;;;1.50;99.90;;;;;;5008740;28;20556;-54
2020/12/04 06:20:44;;;;;;;27.73;17.73;;;1.50;99.90;;;;;;5026660;28;20510;-55
2020/12/04 06:23:16;;;;;;;27.63;16.80;;;1.50;99.90;;;;;;5009500;28;20556;-55
2020/12/04 06:26:01;;;;;;;28.33;17.73;;;1.50;99.90;;;;;;5030881;28;20487;-55
2020/12/04 06:28:40;;;;;;;27.23;16.13;;;1.50;99.90;;;;;;5026176;28;20486;-55
2020/12/04 06:31:13;;;;;;;28.40;16.83;;;1.50;99.90;;;;;;5034436;28;20459;-54
2020/12/04 06:33:47;;;;;;;29.53;18.10;;;1.50;99.90;;;;;;5045699;28;20568;-54
2020/12/04 06:36:36;;;;;;;24.67;16.80;;;1.50;99.90;;;;;;5048028;28;20576;-55
2020/12/04 06:39:07;;;;;;;29.67;17.03;;;1.60;99.90;;;;;;5045965;28;20474;-55
2020/12/04 06:41:38;;;;;;;30.90;19.30;;;1.60;99.90;;;;;;5048576;28;20490;-54
2020/12/04 06:44:07;;;;;;;29.47;18.47;;;1.50;99.90;;;;;;5048478;28;20493;-54
2020/12/04 06:46:40;;;;;;;30.67;18.77;;;1.60;99.90;;;;;;5044596;28;20989;-55
2020/12/04 06:49:22;;;;;;;30.37;17.83;;;1.60;99.90;;;;;;5046319;28;20990;-55
2020/12/04 06:52:04;;;;;;;27.60;17.60;;;1.60;99.90;;;;;;5046465;28;20482;-55
2020/12/04 06:54:33;;;;;;;30.23;16.40;;;1.60;99.90;;;;;;5047828;28;20474;-56
2020/12/04 06:57:00;;;;;;;30.77;18.70;;;1.60;99.90;;;;;;5047760;28;20532;-54
2020/12/04 06:59:32;;;;;;;28.50;18.03;;;1.60;99.90;;;;;;5044724;28;20482;-54
2020/12/04 07:02:08;;;;;;;28.93;17.13;;;1.60;99.90;;;;;;5042162;28;21412;-55
2020/12/04 07:04:39;;;;;;;31.30;18.30;;;1.60;99.90;;;;;;5042175;28;21055;-54
2020/12/04 07:07:09;;;;;;;31.17;19.33;;;1.60;99.90;;;;;;5027722;28;20523;-56
2020/12/04 07:09:37;;;;;;;29.03;18.07;;;1.60;99.90;;;;;;5028038;28;20570;-55
2020/12/04 07:12:05;;;;;;;29.70;18.33;;;1.60;99.90;;;;;;5027894;28;20487;-56
2020/12/04 07:14:34;;;;;;;26.93;17.27;;;1.60;99.90;;;;;;5027808;28;21037;-55
2020/12/04 07:17:01;;;;;;;29.07;15.87;;;1.60;99.90;;;;;;5024054;28;20812;-54
2020/12/04 07:19:29;;;;;;;29.37;18.67;;;1.60;99.90;;;;;;5023651;28;20586;-55
2020/12/04 07:21:56;;;;;;;29.63;17.80;;;1.60;99.90;;;;;;5021959;28;21037;-55
2020/12/04 07:24:23;;;;;;;26.53;15.47;;;1.60;99.90;;;;;;5023404;28;20491;-55
2020/12/04 07:26:53;;;;;;;31.63;18.87;;;1.60;99.90;;;;;;5023636;28;20514;-54
2020/12/04 07:29:21;;;;;;;32.47;19.27;;;1.60;99.90;;;;;;5023158;28;20970;-55
2020/12/04 07:31:53;;;;;;;22.60;14.13;;;1.70;99.90;;;;;;5038862;28;20859;-54
2020/12/04 07:34:24;;;;;;;31.83;19.50;;;1.70;99.90;;;;;;5047878;28;20503;-54
2020/12/04 07:36:55;;;;;;;32.07;19.93;;;1.70;99.90;;;;;;5047924;28;20479;-55
2020/12/04 07:39:29;;;;;;;31.60;19.07;;;1.70;99.90;;;;;;5047780;28;20569;-55
2020/12/04 07:41:59;;;;;;;32.13;19.63;;;1.70;99.90;;;;;;5048008;28;20526;-54
2020/12/04 07:44:33;;;;;;;30.67;20.10;;;1.70;99.90;;;;;;5047722;28;20839;-54
2020/12/04 07:47:08;;;;;;;31.93;19.37;;;1.70;99.90;;;;;;5047873;28;20514;-55
2020/12/04 07:49:38;;;;;;;31.90;19.27;;;1.70;99.90;;;;;;5047734;28;20531;-56
2020/12/04 07:52:16;;;;;;;34.37;20.23;;;1.70;99.90;;;;;;5048213;28;20551;-55
2020/12/04 07:54:44;;;;;;;30.93;20.00;;;1.80;99.90;;;;;;5047835;28;20478;-55
2020/12/04 07:57:12;;;;;;;31.33;19.43;;;1.80;99.90;;;;;;5047105;28;20475;-55
2020/12/04 07:59:41;;;;;;;36.20;21.27;;;1.80;99.90;;;;;;5054614;28;20498;-54
2020/12/04 08:02:09;;;;;;;33.60;19.47;;;1.80;99.90;;;;;;5044737;28;20609;-55
2020/12/04 08:04:43;;;;;;;31.97;19.40;;;1.80;99.90;;;;;;5046577;28;20493;-54
2020/12/04 08:07:12;;;;;;;32.93;19.77;;;1.80;99.90;;;;;;5024385;28;20876;-54
2020/12/04 08:09:41;;;;;;;31.57;19.30;;;1.80;99.90;;;;;;5026747;28;20476;-54
2020/12/04 08:12:13;;;;;;;30.90;19.90;;;1.80;99.90;;;;;;5027072;28;21017;-54
2020/12/04 08:14:48;;;;;;;32.30;19.87;;;1.80;99.90;;;;;;5027240;28;20966;-55
2020/12/04 08:17:19;;;;;;;32.47;19.37;;;1.80;99.90;;;;;;5027823;28;20506;-54
2020/12/04 08:19:48;;;;;;;32.40;21.23;;;1.80;99.90;;;;;;5029294;28;20530;-54
2020/12/04 08:22:16;;;;;;;34.23;20.97;;;1.90;99.90;;;;;;5031122;28;20482;-57
2020/12/04 08:25:02;;;;;;;35.10;21.73;;;1.90;99.90;;;;;;5021866;28;20495;-54
2020/12/04 08:27:30;;;;;;;36.17;21.93;;;1.90;99.90;;;;;;5016676;28;20574;-56
2020/12/04 08:30:12;;;;;;;34.03;20.50;;;1.90;99.90;;;;;;5018031;28;20878;-55
2020/12/04 08:32:42;;;;;;;33.73;21.00;;;1.90;99.90;;;;;;5037657;28;20494;-56
2020/12/04 08:35:13;;;;;;;30.67;20.03;;;1.90;99.90;;;;;;5038865;28;20472;-54
2020/12/04 08:37:40;;;;;;;34.50;20.17;;;1.90;99.90;;;;;;5037435;28;20951;-55
2020/12/04 08:40:28;;;;;;;30.33;19.83;;;2.00;99.90;;;;;;5036579;28;20510;-54
2020/12/04 08:43:10;;;;;;;32.63;20.53;;;2.00;99.90;;;;;;5036582;28;20588;-55
2020/12/04 08:45:38;;;;;;;32.70;20.37;;;2.00;99.90;;;;;;5034839;28;20490;-56
2020/12/04 08:48:12;;;;;;;35.80;21.43;;;2.00;99.90;;;;;;5031380;28;20492;-56
2020/12/04 08:50:43;;;;;;;33.33;19.83;;;2.00;99.90;;;;;;5036201;28;20960;-55
2020/12/04 08:53:13;;;;;;;35.10;21.23;;;2.10;99.90;;;;;;5036748;28;20493;-56
2020/12/04 08:55:46;;;;;;;30.77;19.77;;;2.10;99.90;;;;;;5023294;28;21244;-56
2020/12/04 08:58:14;;;;;;;34.03;19.50;;;2.10;99.90;;;;;;5032871;28;20496;-55
2020/12/04 09:00:43;;;;;;;31.57;19.20;;;2.10;99.90;;;;;;5031610;28;20497;-55
2020/12/04 09:03:11;;;;;;;33.03;19.63;;;2.10;99.90;;;;;;5036063;28;20893;-56
2020/12/04 09:05:39;;;;;;;36.40;21.73;;;2.20;99.90;;;;;;5027203;28;20987;-57
2020/12/04 09:08:07;;;;;;;36.10;21.13;;;2.20;99.90;;;;;;5034338;28;21013;-55
2020/12/04 09:10:36;;;;;;;32.43;19.97;;;2.30;99.90;;;;;;5034881;28;20876;-56
2020/12/04 09:13:06;;;;;;;31.77;18.50;;;2.30;99.90;;;;;;5034036;28;21013;-57
2020/12/04 09:15:33;;;;;;;30.90;18.90;;;2.30;99.90;;;;;;5033448;28;20560;-55
2020/12/04 09:18:01;;;;;;;31.53;18.93;;;2.40;99.90;;;;;;5034923;28;20849;-54
2020/12/04 09:20:30;;;;;;;30.43;18.27;;;2.40;99.90;;;;;;5034530;28;20971;-57
2020/12/04 09:22:59;;;;;;;30.20;18.20;;;2.40;99.90;;;;;;5034936;28;20536;-54
2020/12/04 09:25:26;;;;;;;29.57;18.03;;;2.50;99.90;;;;;;5032432;28;20530;-56
2020/12/04 09:28:13;;;;;;;27.43;17.10;;;2.50;99.90;;;;;;5033986;28;20490;-55
2020/12/04 09:30:40;;;;;;;29.47;17.57;;;2.50;99.90;;;;;;5032662;28;20848;-56
2020/12/04 09:33:07;;;;;;;28.53;18.33;;;2.60;99.90;;;;;;5034555;28;20493;-55
2020/12/04 09:35:36;;;;;;;29.30;18.97;;;2.60;99.90;;;;;;5032130;28;21121;-53
2020/12/04 09:38:03;;;;;;;29.67;17.60;;;2.60;99.90;;;;;;5034448;28;20492;-55
2020/12/04 09:40:30;;;;;;;29.90;17.47;;;2.60;99.90;;;;;;5034153;28;20478;-54
2020/12/04 09:42:57;;;;;;;29.00;16.90;;;2.60;99.90;;;;;;5020238;28;20576;-54
2020/12/04 09:45:24;;;;;;;30.70;18.60;;;2.60;99.90;;;;;;5041532;28;20551;-54
2020/12/04 09:47:52;;;;;;;29.30;16.77;;;2.60;99.90;;;;;;5043475;28;20549;-54
2020/12/04 09:50:19;;;;;;;30.27;18.23;;;2.70;99.90;;;;;;5043713;28;20560;-55
2020/12/04 09:52:47;;;;;;;27.63;17.90;;;2.70;99.90;;;;;;5043934;28;20577;-55
2020/12/04 09:55:14;;;;;;;28.83;17.23;;;2.70;99.90;;;;;;5044922;28;20577;-55
2020/12/04 09:57:43;;;;;;;31.03;18.63;;;2.80;99.90;;;;;;5039645;28;20540;-54
2020/12/04 10:00:11;;;;;;;29.40;17.70;;;2.80;99.90;;;;;;5033335;28;20479;-54
2020/12/04 10:02:39;;;;;;;30.47;18.10;;;2.80;99.90;;;;;;5044730;28;20483;-55
2020/12/04 10:05:06;;;;;;;28.13;16.93;;;2.80;99.90;;;;;;5045646;28;20510;-54
2020/12/04 10:07:34;;;;;;;26.67;16.77;;;2.90;99.90;;;;;;5041756;28;20482;-54
2020/12/04 10:10:04;;;;;;;28.37;18.67;;;2.90;99.90;;;;;;5044682;28;20934;-55
2020/12/04 10:12:31;;;;;;;27.80;17.00;;;2.90;99.90;;;;;;5044455;28;20588;-54
2020/12/04 10:14:58;;;;;;;31.20;18.77;;;2.90;99.90;;;;;;5045220;28;20573;-54
2020/12/04 10:17:26;;;;;;;27.80;16.73;;;3.00;99.90;;;;;;5044353;28;20484;-55
2020/12/04 10:19:53;;;;;;;28.70;16.43;;;3.00;99.90;;;;;;5044375;28;20585;-54
2020/12/04 10:22:20;;;;;;;27.67;16.93;;;3.00;99.90;;;;;;5044521;28;21169;-54
2020/12/04 10:24:47;;;;;;;28.17;16.90;;;3.10;99.90;;;;;;5041848;28;20510;-54
2020/12/04 10:27:15;;;;;;;26.33;16.93;;;3.10;99.90;;;;;;5045257;28;21062;-54
2020/12/04 10:29:43;;;;;;;27.57;16.60;;;3.10;99.90;;;;;;5044398;28;20493;-55
2020/12/04 10:32:10;;;;;;;25.20;16.10;;;3.20;99.90;;;;;;5043938;28;21289;-54
2020/12/04 10:34:37;;;;;;;25.40;16.17;;;3.20;99.90;;;;;;5044872;28;20494;-54
2020/12/04 10:37:04;;;;;;;26.97;16.23;;;3.20;99.90;;;;;;5043827;28;20769;-55
2020/12/04 10:39:32;;;;;;;26.37;15.17;;;3.20;99.90;;;;;;5031021;28;20515;-55
2020/12/04 10:42:00;;;;;;;26.17;15.40;;;3.20;99.90;;;;;;5028943;28;21071;-54
2020/12/04 10:44:28;;;;;;;25.93;15.67;;;3.30;99.90;;;;;;5008915;28;20479;-56
2020/12/04 10:46:55;;;;;;;26.20;15.43;;;3.30;99.90;;;;;;5013166;28;20540;-54
2020/12/04 10:49:22;;;;;;;25.70;15.70;;;3.40;99.90;;;;;;5010616;28;20946;-54
2020/12/04 10:51:55;;;;;;;24.97;15.10;;;3.40;99.90;;;;;;5012129;28;20491;-54
2020/12/04 10:54:23;;;;;;;27.77;15.53;;;3.40;99.90;;;;;;5009524;28;20883;-55
2020/12/04 10:56:54;;;;;;;26.00;15.90;;;3.40;99.90;;;;;;5011605;28;20485;-54
2020/12/04 10:59:21;;;;;;;26.43;15.77;;;3.40;99.90;;;;;;5012331;28;20491;-55
2020/12/04 11:01:55;;;;;;;27.57;16.13;;;3.50;99.90;;;;;;5027709;28;20598;-54
2020/12/04 11:07:07;;;;;;;26.73;16.10;;;3.50;99.90;;;;;;5028760;28;20578;-55
2020/12/04 11:09:48;;;;;;;27.37;16.07;;;3.60;99.90;;;;;;5011229;28;20498;-54
2020/12/04 11:12:15;;;;;;;25.90;15.50;;;3.60;99.90;;;;;;5012605;28;20582;-56
2020/12/04 11:14:43;;;;;;;26.13;15.60;;;3.70;99.90;;;;;;5013907;28;20511;-54
2020/12/04 11:17:11;;;;;;;24.27;15.47;;;3.70;99.90;;;;;;5026007;28;20817;-54
2020/12/04 11:19:38;;;;;;;25.73;15.07;;;3.80;99.90;;;;;;5026026;28;20507;-54
2020/12/04 11:22:05;;;;;;;24.17;14.20;;;3.90;99.90;;;;;;5027169;28;20991;-54
2020/12/04 11:24:33;;;;;;;25.93;14.73;;;3.90;99.90;;;;;;5026195;28;20510;-53
2020/12/04 11:27:00;;;;;;;26.13;15.67;;;4.00;99.90;;;;;;5020634;28;20496;-54
2020/12/04 11:29:28;;;;;;;27.30;15.80;;;4.00;99.90;;;;;;5012607;28;20483;-54
2020/12/04 11:31:55;;;;;;;27.33;15.40;;;4.10;99.90;;;;;;5042460;28;20578;-54
2020/12/04 11:34:23;;;;;;;24.97;15.50;;;4.20;99.90;;;;;;5048196;28;20994;-53
2020/12/04 11:36:50;;;;;;;24.90;14.57;;;4.30;99.90;;;;;;5047442;28;20516;-54
2020/12/04 11:39:17;;;;;;;23.37;14.50;;;4.30;99.90;;;;;;5047621;28;20519;-54
2020/12/04 11:41:47;;;;;;;25.17;15.03;;;4.40;99.90;;;;;;5048522;28;20504;-54
2020/12/04 11:44:14;;;;;;;25.10;15.20;;;4.40;99.90;;;;;;5048249;28;20503;-54
2020/12/04 11:46:41;;;;;;;25.87;14.40;;;4.50;99.90;;;;;;5046910;28;20971;-55
2020/12/04 11:49:08;;;;;;;22.83;13.50;;;4.50;99.90;;;;;;5033134;28;20480;-54
2020/12/04 11:51:37;;;;;;;23.73;14.60;;;4.50;99.90;;;;;;5033976;28;20650;-54
2020/12/04 11:54:04;;;;;;;24.83;14.60;;;4.50;99.90;;;;;;5035868;28;20579;-54
2020/12/04 11:56:32;;;;;;;23.50;13.53;;;4.60;99.90;;;;;;5039832;28;20496;-54
2020/12/04 11:58:59;;;;;;;23.17;13.77;;;4.60;99.90;;;;;;5039804;28;20488;-54
2020/12/04 12:01:26;;;;;;;21.03;13.57;;;4.70;99.90;;;;;;5036464;28;20921;-54
2020/12/04 12:03:54;;;;;;;23.40;13.50;;;4.70;99.90;;;;;;5033686;28;20518;-54
2020/12/04 12:06:21;;;;;;;22.50;13.83;;;4.70;99.90;;;;;;5039300;28;20539;-54
2020/12/04 12:08:49;;;;;;;22.97;13.47;;;4.70;99.90;;;;;;5030109;28;20565;-55
2020/12/04 12:11:16;;;;;;;22.63;13.67;;;4.70;99.90;;;;;;5023294;28;20571;-54
2020/12/04 12:13:43;;;;;;;24.87;14.23;;;4.70;99.90;;;;;;5036982;28;20517;-53
2020/12/04 12:16:10;;;;;;;23.60;13.73;;;4.70;99.90;;;;;;5039591;28;20502;-54
2020/12/04 12:18:38;;;;;;;22.73;14.30;;;4.70;99.90;;;;;;5038265;28;20590;-54
2020/12/04 12:21:05;;;;;;;24.50;14.70;;;4.70;99.90;;;;;;5039854;28;20568;-55
2020/12/04 12:23:35;;;;;;;22.40;14.10;;;4.80;99.90;;;;;;5037279;28;20483;-54
2020/12/04 12:26:04;;;;;;;22.37;14.87;;;4.80;99.90;;;;;;5037633;28;20479;-54
2020/12/04 12:28:32;;;;;;;19.17;12.43;;;4.90;99.90;;;;;;5038798;28;20488;-54
2020/12/04 12:30:59;;;;;;;21.33;13.07;;;4.90;99.90;;;;;;5038260;28;20505;-55
2020/12/04 12:33:26;;;;;;;21.03;12.93;;;4.90;99.90;;;;;;5036581;28;20505;-54
2020/12/04 12:35:54;;;;;;;20.87;13.10;;;4.90;99.90;;;;;;5039759;28;20570;-54
2020/12/04 12:38:21;;;;;;;22.03;12.33;;;4.90;99.90;;;;;;5038434;28;20943;-55
2020/12/04 12:40:49;;;;;;;20.40;12.70;;;5.00;99.90;;;;;;5037701;28;21005;-54
2020/12/04 12:43:17;;;;;;;23.67;13.30;;;5.00;99.90;;;;;;5037455;28;20504;-56
2020/12/04 12:45:44;;;;;;;18.40;12.40;;;5.10;99.90;;;;;;5018863;28;20635;-54
2020/12/04 12:48:12;;;;;;;21.30;12.77;;;5.10;99.90;;;;;;5017282;28;20487;-54
2020/12/04 12:50:39;;;;;;;20.40;12.57;;;5.10;99.90;;;;;;5022904;28;20509;-54